createdAt,value
2019-05-25T00:01:46.292Z,17.09
2019-05-25T00:04:51.097Z,17.02
2019-05-25T00:07:55.967Z,16.97
2019-05-25T00:11:01.102Z,16.84
2019-05-25T00:14:05.906Z,16.77
2019-05-25T00:17:11.064Z,16.61
2019-05-25T00:20:16.927Z,16.50
2019-05-25T00:23:21.661Z,16.49
2019-05-25T00:26:27.473Z,16.35
2019-05-25T00:29:32.294Z,16.36
2019-05-25T00:32:37.459Z,16.46
2019-05-25T00:35:43.217Z,16.53
2019-05-25T00:38:48.082Z,16.48
2019-05-25T00:41:54.483Z,16.35
2019-05-25T00:44:59.883Z,16.24
2019-05-25T00:48:04.731Z,16.24
2019-05-25T00:51:09.805Z,16.27
2019-05-25T00:54:27.028Z,16.31
2019-05-25T00:57:21.255Z,16.31
2019-05-25T01:00:26.151Z,16.33
2019-05-25T01:03:30.973Z,16.37
2019-05-25T01:06:35.840Z,16.35
2019-05-25T01:09:40.797Z,16.35
2019-05-25T01:12:46.142Z,16.32
2019-05-25T01:15:51.272Z,16.28
2019-05-25T01:18:56.082Z,16.24
2019-05-25T01:22:00.902Z,16.15
2019-05-25T01:25:06.329Z,15.81
2019-05-25T01:28:11.566Z,15.88
2019-05-25T01:31:16.743Z,15.93
2019-05-25T01:34:21.492Z,16.01
2019-05-25T01:37:26.262Z,16.05
2019-05-25T01:40:31.321Z,16.10
2019-05-25T01:43:36.234Z,15.98
2019-05-25T01:46:41.429Z,15.94
2019-05-25T01:49:46.537Z,15.94
2019-05-25T01:52:51.592Z,15.98
2019-05-25T01:55:56.420Z,15.90
2019-05-25T01:59:01.138Z,15.66
2019-05-25T02:02:05.962Z,15.46
2019-05-25T02:05:11.508Z,15.38
2019-05-25T02:08:16.673Z,15.32
2019-05-25T02:11:21.429Z,15.34
2019-05-25T02:14:26.587Z,15.40
2019-05-25T02:17:31.319Z,15.39
2019-05-25T02:20:36.066Z,15.52
2019-05-25T02:23:41.142Z,15.56
2019-05-25T02:26:45.928Z,15.49
2019-05-25T02:29:51.106Z,15.48
2019-05-25T02:32:56.384Z,15.46
2019-05-25T02:36:01.522Z,15.48
2019-05-25T02:39:07.898Z,15.48
2019-05-25T02:42:13.042Z,15.40
2019-05-25T02:45:18.602Z,15.33
2019-05-25T02:48:24.598Z,15.35
2019-05-25T02:51:29.748Z,15.35
2019-05-25T02:54:34.585Z,15.30
2019-05-25T02:57:39.360Z,15.30
2019-05-25T03:00:44.250Z,15.25
2019-05-25T03:03:49.363Z,15.17
2019-05-25T03:06:55.194Z,15.01
2019-05-25T03:10:01.221Z,14.96
2019-05-25T03:13:06.209Z,14.96
2019-05-25T03:16:10.970Z,14.86
2019-05-25T03:19:15.714Z,14.79
2019-05-25T03:22:21.545Z,14.77
2019-05-25T03:25:26.647Z,14.79
2019-05-25T03:28:31.595Z,14.83
2019-05-25T03:31:36.355Z,14.83
2019-05-25T03:34:41.104Z,14.94
2019-05-25T03:37:45.879Z,14.85
2019-05-25T03:40:51.017Z,14.71
2019-05-25T03:43:55.777Z,14.73
2019-05-25T03:47:00.614Z,14.70
2019-05-25T03:50:06.570Z,14.65
2019-05-25T03:53:11.641Z,14.66
2019-05-25T03:56:16.622Z,14.71
2019-05-25T03:59:21.727Z,14.79
2019-05-25T04:02:26.864Z,14.79
2019-05-25T04:05:31.622Z,14.78
2019-05-25T04:08:36.379Z,14.75
2019-05-25T04:11:42.208Z,14.82
2019-05-25T04:14:47.301Z,14.76
2019-05-25T04:17:52.405Z,14.67
2019-05-25T04:20:57.495Z,14.71
2019-05-25T04:24:02.262Z,14.62
2019-05-25T04:27:07.309Z,14.59
2019-05-25T04:30:12.842Z,14.62
2019-05-25T04:33:17.594Z,14.66
2019-05-25T04:36:22.419Z,14.64
2019-05-25T04:39:27.143Z,14.56
2019-05-25T04:42:32.253Z,14.46
2019-05-25T04:45:37.078Z,14.46
2019-05-25T04:48:41.832Z,14.44
2019-05-25T04:51:46.608Z,14.43
2019-05-25T04:54:51.713Z,14.33
2019-05-25T04:57:56.779Z,14.34
2019-05-25T05:01:02.645Z,14.34
2019-05-25T05:04:07.479Z,14.36
2019-05-25T05:07:12.489Z,14.39
2019-05-25T05:10:17.459Z,14.41
2019-05-25T05:13:22.218Z,14.49
2019-05-25T05:16:26.978Z,14.67
2019-05-25T05:19:31.726Z,14.73
2019-05-25T05:22:36.473Z,14.89
2019-05-25T05:25:41.281Z,14.97
2019-05-25T05:28:49.140Z,15.03
2019-05-25T05:31:53.518Z,15.13
2019-05-25T05:34:59.512Z,15.14
2019-05-25T05:38:07.149Z,15.41
2019-05-25T05:41:13.225Z,15.49
2019-05-25T05:44:21.842Z,15.76
2019-05-25T05:47:28.779Z,15.79
2019-05-25T05:50:36.976Z,15.80
2019-05-25T05:53:43.652Z,15.95
2019-05-25T05:56:48.683Z,15.95
2019-05-25T05:59:53.523Z,15.95
2019-05-25T06:02:58.286Z,16.06
2019-05-25T06:06:03.514Z,16.26
2019-05-25T06:09:09.126Z,16.40
2019-05-25T06:12:14.223Z,16.36
2019-05-25T06:15:19.205Z,16.23
2019-05-25T06:18:24.101Z,16.35
2019-05-25T06:21:28.877Z,16.39
2019-05-25T06:24:33.780Z,16.50
2019-05-25T06:27:38.709Z,16.66
2019-05-25T06:30:43.981Z,16.85
2019-05-25T06:33:49.171Z,17.06
2019-05-25T06:36:54.104Z,16.94
2019-05-25T06:39:58.875Z,17.03
2019-05-25T06:43:04.318Z,17.03
2019-05-25T06:46:09.154Z,17.09
2019-05-25T06:49:14.016Z,17.09
2019-05-25T06:52:19.194Z,17.25
2019-05-25T06:55:23.897Z,17.64
2019-05-25T06:58:28.700Z,17.64
2019-05-25T07:01:33.546Z,17.69
2019-05-25T07:04:39.366Z,17.78
2019-05-25T07:07:44.570Z,17.96
2019-05-25T07:10:49.868Z,18.29
2019-05-25T07:13:54.991Z,18.29
2019-05-25T07:16:59.984Z,18.44
2019-05-25T07:20:06.211Z,18.50
2019-05-25T07:23:11.063Z,18.43
2019-05-25T07:26:15.893Z,18.52
2019-05-25T07:29:20.653Z,18.45
2019-05-25T07:32:25.466Z,18.56
2019-05-25T07:35:30.203Z,18.48
2019-05-25T07:38:35.052Z,18.58
2019-05-25T07:41:40.492Z,18.67
2019-05-25T07:44:45.287Z,18.64
2019-05-25T07:47:50.020Z,18.60
2019-05-25T07:50:55.300Z,18.57
2019-05-25T07:54:00.150Z,18.67
2019-05-25T07:57:05.547Z,18.69
2019-05-25T08:00:11.858Z,18.61
2019-05-25T08:03:16.656Z,18.57
2019-05-25T08:06:21.530Z,18.57
2019-05-25T08:09:26.356Z,18.64
2019-05-25T08:12:31.100Z,18.94
2019-05-25T08:15:36.149Z,18.89
2019-05-25T08:18:40.911Z,19.01
2019-05-25T08:21:46.031Z,19.20
2019-05-25T08:24:50.820Z,19.23
2019-05-25T08:27:55.628Z,19.38
2019-05-25T08:31:01.425Z,19.73
2019-05-25T08:34:06.406Z,19.57
2019-05-25T08:37:11.154Z,19.33
2019-05-25T08:40:16.220Z,19.54
2019-05-25T08:43:21.084Z,19.74
2019-05-25T08:46:26.161Z,19.86
2019-05-25T08:49:32.612Z,20.05
2019-05-25T08:52:37.519Z,20.12
2019-05-25T08:55:42.661Z,20.18
2019-05-25T08:58:48.833Z,19.80
2019-05-25T09:01:53.793Z,20.13
2019-05-25T09:04:58.904Z,20.15
2019-05-25T09:08:03.722Z,20.34
2019-05-25T09:11:09.017Z,20.49
2019-05-25T09:14:14.943Z,20.57
2019-05-25T09:17:19.965Z,20.58
2019-05-25T09:20:25.194Z,20.91
2019-05-25T09:23:30.189Z,20.80
2019-05-25T09:26:35.317Z,20.80
2019-05-25T09:29:40.509Z,21.00
2019-05-25T09:32:45.220Z,21.26
2019-05-25T09:35:50.402Z,21.42
2019-05-25T09:38:55.449Z,21.55
2019-05-25T09:42:00.307Z,21.63
2019-05-25T09:45:07.243Z,21.60
2019-05-25T09:48:12.253Z,21.08
2019-05-25T09:51:17.058Z,21.14
2019-05-25T09:54:21.868Z,21.14
2019-05-25T09:57:28.278Z,20.92
2019-05-25T10:00:33.849Z,21.26
2019-05-25T10:03:38.702Z,21.00
2019-05-25T10:06:43.604Z,21.00
2019-05-25T10:09:48.795Z,20.99
2019-05-25T10:12:53.632Z,21.18
2019-05-25T10:15:58.432Z,21.27
2019-05-25T10:19:03.157Z,21.20
2019-05-25T10:22:08.113Z,21.40
2019-05-25T10:25:13.225Z,21.65
2019-05-25T10:28:18.061Z,21.81
2019-05-25T10:31:23.114Z,21.70
2019-05-25T10:34:27.999Z,21.69
2019-05-25T10:37:33.456Z,21.76
2019-05-25T10:40:38.255Z,21.65
2019-05-25T10:43:43.104Z,21.95
2019-05-25T10:46:47.885Z,21.89
2019-05-25T10:49:52.756Z,22.19
2019-05-25T10:52:57.523Z,22.16
2019-05-25T10:56:02.808Z,22.42
2019-05-25T10:59:07.757Z,22.50
2019-05-25T11:02:12.513Z,22.50
2019-05-25T11:05:18.620Z,22.19
2019-05-25T11:08:23.395Z,22.41
2019-05-25T11:11:28.370Z,22.69
2019-05-25T11:14:33.168Z,22.52
2019-05-25T11:17:38.555Z,22.40
2019-05-25T11:20:43.378Z,22.47
2019-05-25T11:23:48.296Z,22.58
2019-05-25T11:26:53.285Z,22.42
2019-05-25T11:30:08.419Z,22.45
2019-05-25T11:33:04.619Z,22.96
2019-05-25T11:36:09.381Z,23.10
2019-05-25T11:39:14.238Z,23.20
2019-05-25T11:42:19.020Z,23.13
2019-05-25T11:45:24.911Z,23.34
2019-05-25T11:48:29.990Z,23.62
2019-05-25T11:51:35.028Z,24.10
2019-05-25T11:54:40.346Z,23.57
2019-05-25T11:57:46.332Z,22.94
2019-05-25T12:00:52.324Z,22.82
2019-05-25T12:03:57.174Z,22.73
2019-05-25T12:07:02.610Z,22.96
2019-05-25T12:10:09.021Z,22.98
2019-05-25T12:13:14.119Z,22.99
2019-05-25T12:16:19.062Z,23.02
2019-05-25T12:19:24.027Z,23.14
2019-05-25T12:22:28.803Z,22.63
2019-05-25T12:25:33.660Z,22.50
2019-05-25T12:28:38.410Z,22.67
2019-05-25T12:31:43.843Z,22.62
2019-05-25T12:34:48.641Z,22.50
2019-05-25T12:37:53.711Z,22.56
2019-05-25T12:40:58.562Z,22.50
2019-05-25T12:44:03.545Z,22.41
2019-05-25T12:47:08.404Z,22.42
2019-05-25T12:50:13.719Z,22.43
2019-05-25T12:53:18.488Z,22.20
2019-05-25T12:56:23.355Z,21.93
2019-05-25T12:59:28.174Z,22.01
2019-05-25T13:02:33.090Z,22.21
2019-05-25T13:05:37.969Z,22.11
2019-05-25T13:08:44.107Z,22.08
2019-05-25T13:11:49.021Z,21.88
2019-05-25T13:14:54.206Z,21.83
2019-05-25T13:17:59.685Z,21.93
2019-05-25T13:21:04.473Z,21.85
2019-05-25T13:24:09.273Z,21.83
2019-05-25T13:27:14.737Z,21.90
2019-05-25T13:30:20.405Z,21.90
2019-05-25T13:33:25.800Z,21.96
2019-05-25T13:36:30.834Z,21.92
2019-05-25T13:39:35.575Z,21.93
2019-05-25T13:42:40.314Z,22.06
2019-05-25T13:45:46.185Z,22.07
2019-05-25T13:48:51.440Z,22.01
2019-05-25T13:51:56.469Z,22.13
2019-05-25T13:55:01.309Z,22.10
2019-05-25T13:58:06.523Z,22.24
2019-05-25T14:01:25.617Z,22.55
2019-05-25T14:04:18.477Z,22.76
2019-05-25T14:07:23.591Z,23.06
2019-05-25T14:10:28.772Z,23.18
2019-05-25T14:13:34.132Z,23.17
2019-05-25T14:16:39.229Z,23.30
2019-05-25T14:19:44.313Z,22.95
2019-05-25T14:22:49.082Z,22.91
2019-05-25T14:25:53.922Z,22.85
2019-05-25T14:28:59.289Z,22.89
2019-05-25T14:32:04.179Z,23.05
2019-05-25T14:35:10.076Z,23.06
2019-05-25T14:38:14.944Z,23.06
2019-05-25T14:41:19.647Z,23.15
2019-05-25T14:44:24.732Z,23.21
2019-05-25T14:47:30.080Z,23.38
2019-05-25T14:50:36.861Z,23.82
2019-05-25T14:53:42.082Z,24.23
2019-05-25T14:56:46.838Z,24.07
2019-05-25T14:59:51.643Z,24.33
2019-05-25T15:02:56.470Z,24.28
2019-05-25T15:06:01.271Z,24.53
2019-05-25T15:09:07.359Z,24.29
2019-05-25T15:12:12.127Z,24.04
2019-05-25T15:15:17.242Z,24.16
2019-05-25T15:18:21.964Z,24.07
2019-05-25T15:21:27.042Z,23.95
2019-05-25T15:24:31.746Z,23.68
2019-05-25T15:27:37.072Z,23.79
2019-05-25T15:30:42.159Z,24.12
2019-05-25T15:33:47.022Z,24.42
2019-05-25T15:36:51.825Z,24.65
2019-05-25T15:39:56.943Z,24.90
2019-05-25T15:43:01.667Z,24.81
2019-05-25T15:46:06.979Z,24.63
2019-05-25T15:49:11.839Z,24.07
2019-05-25T15:52:17.005Z,23.56
2019-05-25T15:55:22.225Z,23.24
2019-05-25T15:58:27.086Z,23.16
2019-05-25T16:01:32.027Z,23.04
2019-05-25T16:04:37.276Z,23.00
2019-05-25T16:07:45.379Z,22.95
2019-05-25T16:10:50.290Z,22.99
2019-05-25T16:13:55.384Z,22.91
2019-05-25T16:17:00.633Z,22.94
2019-05-25T16:20:05.775Z,22.98
2019-05-25T16:23:13.543Z,22.90
2019-05-25T16:26:18.303Z,22.82
2019-05-25T16:29:23.471Z,22.96
2019-05-25T16:32:28.262Z,22.82
2019-05-25T16:35:33.413Z,22.77
2019-05-25T16:38:38.320Z,22.66
2019-05-25T16:41:43.461Z,22.71
2019-05-25T16:44:48.318Z,22.71
2019-05-25T16:47:53.287Z,22.74
2019-05-25T16:50:59.612Z,23.03
2019-05-25T16:54:04.430Z,23.62
2019-05-25T16:57:10.554Z,24.14
2019-05-25T17:00:19.638Z,24.24
2019-05-25T17:03:28.438Z,24.06
2019-05-25T17:06:31.870Z,24.15
2019-05-25T17:09:37.707Z,24.37
2019-05-25T17:12:42.715Z,24.28
2019-05-25T17:15:47.529Z,24.40
2019-05-25T17:18:52.341Z,24.50
2019-05-25T17:21:57.719Z,24.31
2019-05-25T17:25:02.619Z,24.19
2019-05-25T17:28:07.532Z,24.21
2019-05-25T17:31:12.602Z,24.20
2019-05-25T17:34:17.494Z,24.16
2019-05-25T17:37:22.243Z,23.65
2019-05-25T17:40:27.072Z,23.23
2019-05-25T17:43:31.882Z,22.98
2019-05-25T17:46:36.728Z,22.77
2019-05-25T17:49:41.550Z,22.68
2019-05-25T17:52:46.294Z,22.73
2019-05-25T17:55:51.037Z,22.67
2019-05-25T17:58:56.873Z,22.67
2019-05-25T18:02:01.612Z,22.49
2019-05-25T18:05:06.973Z,22.47
2019-05-25T18:08:12.238Z,22.42
2019-05-25T18:11:17.124Z,22.35
2019-05-25T18:14:22.894Z,22.46
2019-05-25T18:17:27.725Z,22.34
2019-05-25T18:20:32.449Z,22.17
2019-05-25T18:23:37.397Z,22.15
2019-05-25T18:26:42.322Z,22.09
2019-05-25T18:29:47.171Z,22.17
2019-05-25T18:32:51.985Z,22.11
2019-05-25T18:35:59.002Z,22.21
2019-05-25T18:39:05.355Z,22.08
2019-05-25T18:42:10.831Z,21.81
2019-05-25T18:45:15.925Z,21.57
2019-05-25T18:48:20.683Z,21.58
2019-05-25T18:51:25.601Z,21.50
2019-05-25T18:54:30.577Z,21.31
2019-05-25T18:57:36.394Z,21.18
2019-05-25T19:00:41.210Z,21.02
2019-05-25T19:03:48.816Z,20.93
2019-05-25T19:06:53.704Z,20.83
2019-05-25T19:09:58.514Z,20.67
2019-05-25T19:13:03.304Z,20.63
2019-05-25T19:16:08.482Z,20.75
2019-05-25T19:19:13.878Z,20.71
2019-05-25T19:22:18.635Z,20.61
2019-05-25T19:25:23.451Z,20.61
2019-05-25T19:28:32.314Z,20.51
2019-05-25T19:31:37.513Z,20.45
2019-05-25T19:34:56.668Z,20.43
2019-05-25T19:37:48.866Z,20.44
2019-05-25T19:40:53.780Z,20.44
2019-05-25T19:43:58.832Z,20.26
2019-05-25T19:47:03.760Z,20.23
2019-05-25T19:50:09.717Z,20.06
2019-05-25T19:53:14.455Z,20.07
2019-05-25T19:56:19.283Z,19.93
2019-05-25T19:59:24.507Z,19.97
2019-05-25T20:02:29.566Z,19.91
2019-05-25T20:05:34.703Z,19.91
2019-05-25T20:08:39.647Z,19.94
2019-05-25T20:11:44.828Z,19.91
2019-05-25T20:14:49.697Z,19.63
2019-05-25T20:17:54.576Z,19.65
2019-05-25T20:20:59.793Z,19.52
2019-05-25T20:24:04.681Z,19.52
2019-05-25T20:27:09.510Z,19.24
2019-05-25T20:30:14.685Z,19.02
2019-05-25T20:33:27.691Z,18.91
2019-05-25T20:36:26.047Z,18.90
2019-05-25T20:39:31.220Z,18.73
2019-05-25T20:42:36.568Z,18.57
2019-05-25T20:45:41.570Z,18.62
2019-05-25T20:48:47.032Z,18.61
2019-05-25T20:51:51.847Z,18.63
2019-05-25T20:54:56.607Z,18.67
2019-05-25T20:58:01.362Z,18.62
2019-05-25T21:01:06.386Z,18.37
2019-05-25T21:04:12.152Z,18.10
2019-05-25T21:07:17.160Z,18.07
2019-05-25T21:10:21.932Z,18.19
2019-05-25T21:13:26.769Z,18.01
2019-05-25T21:16:32.125Z,17.91
2019-05-25T21:19:37.217Z,17.77
2019-05-25T21:22:42.231Z,17.68
2019-05-25T21:25:48.406Z,17.48
2019-05-25T21:28:53.387Z,17.47
2019-05-25T21:31:58.129Z,17.39
2019-05-25T21:35:02.953Z,17.48
2019-05-25T21:38:08.183Z,17.37
2019-05-25T21:41:13.041Z,17.32
2019-05-25T21:44:17.888Z,17.45
2019-05-25T21:47:23.633Z,17.36
2019-05-25T21:50:28.478Z,17.29
2019-05-25T21:53:33.617Z,17.31
2019-05-25T21:56:38.799Z,17.28
2019-05-25T21:59:44.145Z,17.27
2019-05-25T22:02:49.189Z,17.12
2019-05-25T22:05:53.981Z,17.05
2019-05-25T22:08:58.846Z,16.86
2019-05-25T22:12:04.795Z,16.80
2019-05-25T22:15:10.625Z,16.59
2019-05-25T22:18:15.435Z,16.27
2019-05-25T22:21:20.589Z,16.06
2019-05-25T22:24:25.871Z,15.98
2019-05-25T22:27:30.670Z,15.93
2019-05-25T22:30:35.507Z,16.01
2019-05-25T22:33:40.674Z,16.11
2019-05-25T22:36:45.731Z,16.13
2019-05-25T22:39:50.503Z,16.19
2019-05-25T22:42:55.381Z,16.37
2019-05-25T22:46:00.223Z,16.51
2019-05-25T22:49:05.427Z,16.59
2019-05-25T22:52:10.524Z,16.67
2019-05-25T22:55:15.716Z,16.67
2019-05-25T22:58:20.648Z,16.60
2019-05-25T23:01:25.476Z,16.62
2019-05-25T23:04:30.312Z,16.59
2019-05-25T23:07:36.129Z,16.57
2019-05-25T23:10:40.906Z,16.47
2019-05-25T23:13:46.422Z,16.41
2019-05-25T23:16:51.526Z,16.26
2019-05-25T23:19:56.589Z,16.04
2019-05-25T23:23:01.377Z,15.82
2019-05-25T23:26:06.680Z,15.60
2019-05-25T23:29:12.054Z,15.63
2019-05-25T23:32:17.164Z,15.73
2019-05-25T23:35:22.183Z,15.82
2019-05-25T23:38:28.548Z,15.71
2019-05-25T23:41:33.464Z,15.64
2019-05-25T23:44:38.395Z,15.64
2019-05-25T23:47:43.175Z,15.58
2019-05-25T23:50:48.294Z,15.72
2019-05-25T23:53:53.486Z,15.72
2019-05-25T23:56:58.219Z,15.64
